createdAt,value
2023-02-21T00:05:19.586Z,19.13
2023-02-21T00:07:46.293Z,22.85
2023-02-21T00:10:14.860Z,29.88
2023-02-21T00:12:44.947Z,22.85
2023-02-21T00:15:12.227Z,20.15
2023-02-21T00:17:41.781Z,19.42
2023-02-21T00:23:23.353Z,21.88
2023-02-21T00:26:20.660Z,20.42
2023-02-21T00:29:19.284Z,18.73
2023-02-21T00:38:24.410Z,28.27
2023-02-21T01:20:24.820Z,21.85
2023-02-21T01:25:33.854Z,22.27
2023-02-21T01:28:09.807Z,25.10
2023-02-21T01:30:36.956Z,23.42
2023-02-21T01:33:04.157Z,24.85
2023-02-21T01:35:32.532Z,28.67
2023-02-21T01:37:59.549Z,24.02
2023-02-21T01:40:26.607Z,26.23
2023-02-21T01:42:53.470Z,25.58
2023-02-21T01:45:49.421Z,28.92
2023-02-21T01:48:20.508Z,36.28
2023-02-21T01:50:48.698Z,24.45
2023-02-21T01:53:18.005Z,24.50
2023-02-21T01:55:45.336Z,29.05
2023-02-21T01:58:13.816Z,20.83
2023-02-21T02:00:42.198Z,27.65
2023-02-21T02:03:11.208Z,23.63
2023-02-21T02:05:42.574Z,31.55
2023-02-21T02:08:10.973Z,24.38
2023-02-21T02:10:41.351Z,21.95
2023-02-21T02:13:35.638Z,29.08
2023-02-21T02:16:07.032Z,25.65
2023-02-21T02:18:58.637Z,22.55
2023-02-21T02:22:19.122Z,30.83
2023-02-21T02:25:27.175Z,31.42
2023-02-21T02:28:46.517Z,23.05
2023-02-21T02:31:28.425Z,29.05
2023-02-21T02:34:26.680Z,29.50
2023-02-21T02:37:16.477Z,22.95
2023-02-21T02:39:48.380Z,27.83
2023-02-21T02:42:27.144Z,24.17
2023-02-21T02:45:04.362Z,29.58
2023-02-21T02:47:38.866Z,26.33
2023-02-21T02:50:08.380Z,34.95
2023-02-21T02:52:37.982Z,32.10
2023-02-21T03:06:58.616Z,27.95
2023-02-21T03:13:02.536Z,28.10
2023-02-21T03:18:32.787Z,29.00
2023-02-21T03:21:04.515Z,25.63
2023-02-21T03:23:35.050Z,35.72
2023-02-21T03:26:15.156Z,28.05
2023-02-21T03:34:19.704Z,25.23
2023-02-21T03:45:28.783Z,22.50
2023-02-21T03:50:53.968Z,32.38
2023-02-21T03:53:27.327Z,28.40
2023-02-21T03:59:02.997Z,32.70
2023-02-21T04:01:29.776Z,26.33
2023-02-21T04:03:58.908Z,26.15
2023-02-21T04:06:27.046Z,25.45
2023-02-21T04:08:55.249Z,22.55
2023-02-21T04:11:24.641Z,27.13
2023-02-21T04:13:53.406Z,28.60
2023-02-21T04:16:20.845Z,30.23
2023-02-21T04:24:44.422Z,31.00
2023-02-21T04:27:13.197Z,31.25
2023-02-21T04:29:44.610Z,30.20
2023-02-21T04:32:11.944Z,26.35
2023-02-21T04:34:40.233Z,30.73
2023-02-21T05:19:57.446Z,26.67
2023-02-21T05:22:24.565Z,29.90
2023-02-21T05:24:51.461Z,33.15
2023-02-21T05:27:20.488Z,28.63
2023-02-21T05:29:48.008Z,21.88
2023-02-21T05:32:15.309Z,30.05
2023-02-21T05:34:42.478Z,28.35
2023-02-21T05:37:10.592Z,30.88
2023-02-21T05:39:41.363Z,29.38
2023-02-21T05:46:00.561Z,28.52
2023-02-21T06:13:53.705Z,35.03
2023-02-21T06:16:22.568Z,29.35
2023-02-21T06:18:51.876Z,26.98
2023-02-21T06:21:19.441Z,30.42
2023-02-21T06:23:47.005Z,28.75
2023-02-21T06:29:12.669Z,28.90
2023-02-21T06:35:23.497Z,25.88
2023-02-21T06:49:05.192Z,30.38
2023-02-21T06:51:35.109Z,31.00
2023-02-21T06:56:43.009Z,32.53
2023-02-21T07:01:54.143Z,26.00
2023-02-21T07:04:22.276Z,28.20
2023-02-21T07:06:49.107Z,27.17
2023-02-21T07:09:23.638Z,26.42
2023-02-21T07:11:53.806Z,30.65
2023-02-21T07:14:32.514Z,34.35
2023-02-21T07:17:01.150Z,31.00
2023-02-21T07:19:27.993Z,28.17
2023-02-21T07:21:55.546Z,28.60
2023-02-21T07:24:23.740Z,28.45
2023-02-21T07:26:54.775Z,31.92
2023-02-21T07:29:22.092Z,24.98
2023-02-21T07:31:49.031Z,30.10
2023-02-21T07:34:17.311Z,27.73
2023-02-21T07:36:44.209Z,26.45
2023-02-21T07:39:10.970Z,29.67
2023-02-21T07:41:37.780Z,27.67
2023-02-21T07:44:05.243Z,28.30
2023-02-21T07:46:32.067Z,29.00
2023-02-21T07:48:58.865Z,27.77
2023-02-21T07:51:29.754Z,25.83
2023-02-21T07:53:56.765Z,29.52
2023-02-21T07:56:23.853Z,29.70
2023-02-21T07:58:50.773Z,34.28
2023-02-21T08:01:17.658Z,27.48
2023-02-21T08:03:44.483Z,29.00
2023-02-21T08:06:12.179Z,30.02
2023-02-21T08:08:40.430Z,26.95
2023-02-21T08:11:07.601Z,24.90
2023-02-21T08:13:34.566Z,32.05
2023-02-21T08:16:01.483Z,25.60
2023-02-21T08:18:28.211Z,30.45
2023-02-21T08:20:56.192Z,28.40
2023-02-21T08:23:24.445Z,33.92
2023-02-21T08:25:52.896Z,27.95
2023-02-21T08:28:19.645Z,30.00
2023-02-21T08:30:46.476Z,27.50
2023-02-21T08:33:13.352Z,29.98
2023-02-21T08:35:40.205Z,26.40
2023-02-21T08:38:06.941Z,29.58
2023-02-21T08:40:33.631Z,30.38
2023-02-21T08:43:02.072Z,26.70
2023-02-21T08:45:29.406Z,27.88
2023-02-21T08:47:56.919Z,30.13
2023-02-21T08:50:25.761Z,26.73
2023-02-21T08:52:53.119Z,28.15
2023-02-21T08:55:20.448Z,28.23
2023-02-21T08:57:49.192Z,26.40
2023-02-21T09:00:19.596Z,26.20
2023-02-21T09:02:46.369Z,26.58
2023-02-21T09:05:16.033Z,26.20
2023-02-21T09:07:42.947Z,23.27
2023-02-21T09:10:11.310Z,21.63
2023-02-21T09:12:38.517Z,23.50
2023-02-21T09:15:06.589Z,22.35
2023-02-21T09:17:35.177Z,22.42
2023-02-21T09:20:03.609Z,24.63
2023-02-21T09:22:30.847Z,23.92
2023-02-21T09:24:57.612Z,22.77
2023-02-21T09:27:24.365Z,23.48
2023-02-21T09:29:51.168Z,21.38
2023-02-21T09:32:18.168Z,24.73
2023-02-21T09:34:46.290Z,23.88
2023-02-21T09:37:13.536Z,22.58
2023-02-21T09:39:40.409Z,24.27
2023-02-21T09:42:07.399Z,21.23
2023-02-21T09:44:34.887Z,22.30
2023-02-21T09:47:04.235Z,18.75
2023-02-21T09:49:35.522Z,19.60
2023-02-21T09:52:04.216Z,25.10
2023-02-21T09:54:33.655Z,26.42
2023-02-21T09:57:03.542Z,22.63
2023-02-21T09:59:30.813Z,22.83
2023-02-21T10:02:17.915Z,21.33
2023-02-21T10:04:57.555Z,21.70
2023-02-21T10:07:36.443Z,22.30
2023-02-21T10:10:10.414Z,18.15
2023-02-21T10:12:44.744Z,20.35
2023-02-21T10:15:25.858Z,22.90
2023-02-21T10:17:59.255Z,17.13
2023-02-21T10:20:35.817Z,17.63
2023-02-21T10:23:14.577Z,18.33
2023-02-21T10:25:43.927Z,16.30
2023-02-21T10:28:17.620Z,17.08
2023-02-21T10:30:44.734Z,18.27
2023-02-21T10:33:11.539Z,17.95
2023-02-21T10:35:39.268Z,18.23
2023-02-21T10:38:11.787Z,19.50
2023-02-21T10:40:40.913Z,20.90
2023-02-21T10:43:13.405Z,20.80
2023-02-21T10:45:46.819Z,18.77
2023-02-21T10:48:14.521Z,14.77
2023-02-21T10:50:50.298Z,17.92
2023-02-21T10:53:29.033Z,15.00
2023-02-21T10:56:24.603Z,17.35
2023-02-21T10:58:54.760Z,16.88
2023-02-21T11:01:30.750Z,16.52
2023-02-21T11:03:59.762Z,13.93
2023-02-21T11:06:32.707Z,15.85
2023-02-21T11:09:02.234Z,15.13
2023-02-21T11:11:37.151Z,17.25
2023-02-21T11:14:23.401Z,14.93
2023-02-21T11:17:07.142Z,16.63
2023-02-21T11:19:51.930Z,14.90
2023-02-21T11:22:22.454Z,15.70
2023-02-21T11:24:59.541Z,16.35
2023-02-21T11:27:29.340Z,15.05
2023-02-21T11:29:56.581Z,14.65
2023-02-21T11:32:30.617Z,16.13
2023-02-21T11:35:03.119Z,14.85
2023-02-21T11:37:29.987Z,14.60
2023-02-21T11:39:58.263Z,12.23
2023-02-21T11:42:28.450Z,14.80
2023-02-21T11:45:17.258Z,14.13
2023-02-21T11:47:50.638Z,15.57
2023-02-21T11:50:24.933Z,15.20
2023-02-21T11:53:02.232Z,19.25
2023-02-21T11:55:30.714Z,14.18
2023-02-21T11:58:11.809Z,15.23
2023-02-21T12:00:47.863Z,14.00
2023-02-21T12:03:38.268Z,17.05
2023-02-21T12:06:11.876Z,13.18
2023-02-21T12:08:44.349Z,13.75
2023-02-21T12:11:29.635Z,13.45
2023-02-21T12:14:15.530Z,15.43
2023-02-21T12:16:52.707Z,20.88
2023-02-21T12:19:46.691Z,13.00
2023-02-21T12:22:27.657Z,16.38
2023-02-21T12:25:09.296Z,14.52
2023-02-21T12:27:45.353Z,11.43
2023-02-21T12:30:25.761Z,13.30
2023-02-21T12:33:03.592Z,13.23
2023-02-21T12:36:08.140Z,13.60
2023-02-21T12:38:43.119Z,9.95
2023-02-21T12:41:29.732Z,14.02
2023-02-21T12:44:06.676Z,13.20
2023-02-21T12:46:39.718Z,14.32
2023-02-21T12:49:14.049Z,14.48
2023-02-21T12:51:45.658Z,15.40
2023-02-21T12:54:17.070Z,12.60
2023-02-21T12:56:49.787Z,12.98
2023-02-21T12:59:24.773Z,14.50
2023-02-21T13:01:58.430Z,18.15
2023-02-21T13:04:36.241Z,15.02
2023-02-21T13:07:07.104Z,13.00
2023-02-21T13:09:37.905Z,14.88
2023-02-21T13:12:09.442Z,13.73
2023-02-21T13:14:43.658Z,15.27
2023-02-21T13:17:11.578Z,16.13
2023-02-21T13:19:43.465Z,13.95
2023-02-21T13:22:47.767Z,17.92
2023-02-21T13:25:24.780Z,15.65
2023-02-21T13:27:57.866Z,16.38
2023-02-21T13:30:37.262Z,17.10
2023-02-21T13:33:05.523Z,17.13
2023-02-21T13:35:35.863Z,16.08
2023-02-21T13:38:05.729Z,15.77
2023-02-21T13:40:36.727Z,16.75
2023-02-21T13:43:10.346Z,14.45
2023-02-21T13:45:38.763Z,19.98
2023-02-21T13:48:28.558Z,16.38
2023-02-21T13:50:57.188Z,19.02
2023-02-21T13:53:25.794Z,18.00
2023-02-21T13:56:25.305Z,18.10
2023-02-21T13:58:52.530Z,20.92
2023-02-21T14:01:43.275Z,17.60
2023-02-21T14:04:58.107Z,18.75
2023-02-21T14:07:44.144Z,16.73
2023-02-21T14:10:25.597Z,17.10
2023-02-21T14:15:22.235Z,16.48
2023-02-21T14:17:52.237Z,17.90
2023-02-21T14:20:22.663Z,21.25
2023-02-21T14:22:51.360Z,20.25
2023-02-21T14:25:21.603Z,20.05
2023-02-21T14:27:48.365Z,19.70
2023-02-21T14:30:26.335Z,20.05
2023-02-21T14:32:58.228Z,17.77
2023-02-21T14:35:32.339Z,20.08
2023-02-21T14:38:02.037Z,21.27
2023-02-21T14:43:14.972Z,25.70
2023-02-21T14:45:56.456Z,27.67
2023-02-21T14:48:58.998Z,20.75
2023-02-21T14:52:01.469Z,22.42
2023-02-21T14:55:25.078Z,20.88
2023-02-21T14:58:25.574Z,23.02
2023-02-21T15:01:04.213Z,23.25
2023-02-21T15:03:36.266Z,25.55
2023-02-21T15:06:06.728Z,23.08
2023-02-21T15:08:42.404Z,22.58
2023-02-21T15:11:20.449Z,20.13
2023-02-21T15:13:48.322Z,24.10
2023-02-21T15:16:16.667Z,21.65
2023-02-21T15:18:58.813Z,21.95
2023-02-21T15:21:25.851Z,23.25
2023-02-21T15:24:01.897Z,22.92
2023-02-21T15:26:30.753Z,23.80
2023-02-21T15:29:06.367Z,24.20
2023-02-21T15:31:36.913Z,26.98
2023-02-21T15:34:05.731Z,21.85
2023-02-21T15:36:33.334Z,32.92
2023-02-21T15:39:06.241Z,23.20
2023-02-21T15:41:37.964Z,23.33
2023-02-21T15:44:10.654Z,28.90
2023-02-21T15:46:43.097Z,22.10
2023-02-21T15:49:16.762Z,24.55
2023-02-21T15:51:43.710Z,18.27
2023-02-21T15:54:23.417Z,20.02
2023-02-21T15:57:05.417Z,23.17
2023-02-21T15:59:33.421Z,19.88
2023-02-21T16:02:23.222Z,19.58
2023-02-21T16:04:52.978Z,21.13
2023-02-21T16:09:57.589Z,20.05
2023-02-21T16:12:30.918Z,19.20
2023-02-21T16:14:59.874Z,19.48
2023-02-21T16:17:31.801Z,22.02
2023-02-21T16:20:02.503Z,20.20
2023-02-21T16:22:43.163Z,25.00
2023-02-21T16:25:23.708Z,22.85
2023-02-21T16:27:53.131Z,20.67
2023-02-21T16:30:31.971Z,26.42
2023-02-21T16:33:03.985Z,20.63
2023-02-21T16:35:34.505Z,19.77
2023-02-21T16:38:02.134Z,17.42
2023-02-21T16:40:30.923Z,19.13
2023-02-21T16:42:58.435Z,16.05
2023-02-21T16:45:25.744Z,21.55
2023-02-21T16:47:56.805Z,22.90
2023-02-21T16:50:29.227Z,25.75
2023-02-21T16:52:56.300Z,23.92
2023-02-21T16:55:23.104Z,25.77
2023-02-21T16:57:53.795Z,25.13
2023-02-21T17:00:22.027Z,31.52
2023-02-21T17:02:49.252Z,26.73
2023-02-21T17:05:16.312Z,23.35
2023-02-21T17:07:44.436Z,23.58
2023-02-21T17:10:11.667Z,23.88
2023-02-21T17:12:38.372Z,27.40
2023-02-21T17:15:06.234Z,23.13
2023-02-21T17:17:32.917Z,26.83
2023-02-21T17:19:59.641Z,24.33
2023-02-21T17:22:26.296Z,26.13
2023-02-21T17:24:54.318Z,24.67
2023-02-21T17:27:21.043Z,23.50
2023-02-21T17:29:48.059Z,27.15
2023-02-21T17:32:16.305Z,24.02
2023-02-21T17:34:43.676Z,28.23
2023-02-21T17:37:10.352Z,22.67
2023-02-21T17:39:37.178Z,25.45
2023-02-21T17:42:05.415Z,28.88
2023-02-21T17:44:32.143Z,30.48
2023-02-21T17:46:59.148Z,29.98
2023-02-21T17:49:27.765Z,27.08
2023-02-21T17:51:54.993Z,25.08
2023-02-21T17:54:24.213Z,25.45
2023-02-21T17:56:50.992Z,23.63
2023-02-21T17:59:19.934Z,25.60
2023-02-21T18:01:46.996Z,26.25
2023-02-21T18:04:14.599Z,27.92
2023-02-21T18:06:42.487Z,30.77
2023-02-21T18:09:09.320Z,26.77
2023-02-21T18:11:35.984Z,31.30
2023-02-21T18:14:03.298Z,30.08
2023-02-21T18:16:31.540Z,30.40
2023-02-21T18:18:58.547Z,27.65
2023-02-21T18:21:25.328Z,21.77
2023-02-21T18:23:52.897Z,27.80
2023-02-21T18:26:19.939Z,30.35
2023-02-21T18:28:46.706Z,24.30
2023-02-21T18:31:15.539Z,24.88
2023-02-21T18:33:44.099Z,25.45
2023-02-21T18:36:10.838Z,26.35
2023-02-21T18:38:39.654Z,25.40
2023-02-21T18:41:10.059Z,23.17
2023-02-21T18:43:37.267Z,26.48
2023-02-21T18:46:08.645Z,26.55
2023-02-21T18:48:35.514Z,27.52
2023-02-21T18:51:08.092Z,27.77
2023-02-21T18:53:34.944Z,28.85
2023-02-21T18:56:01.680Z,25.52
2023-02-21T18:58:29.966Z,25.52
2023-02-21T19:00:56.770Z,25.05
2023-02-21T19:03:24.039Z,29.13
2023-02-21T19:05:51.024Z,22.95
2023-02-21T19:08:19.680Z,24.55
2023-02-21T19:10:46.581Z,24.88
2023-02-21T19:13:13.496Z,28.27
2023-02-21T19:15:40.427Z,26.67
2023-02-21T19:18:07.873Z,25.58
2023-02-21T19:20:35.163Z,29.77
2023-02-21T19:23:01.886Z,24.10
2023-02-21T19:25:30.101Z,23.48
2023-02-21T19:27:57.453Z,27.90
2023-02-21T19:33:08.547Z,21.67
2023-02-21T19:35:36.370Z,24.67
2023-02-21T19:38:05.238Z,23.50
2023-02-21T19:40:34.310Z,23.70
2023-02-21T19:43:01.265Z,24.67
2023-02-21T19:45:28.175Z,23.55
2023-02-21T19:47:55.102Z,21.58
2023-02-21T19:50:21.896Z,22.27
2023-02-21T19:52:52.315Z,24.25
2023-02-21T19:55:19.170Z,23.70
2023-02-21T19:57:47.681Z,24.58
2023-02-21T20:00:15.063Z,23.70
2023-02-21T20:02:42.469Z,27.85
2023-02-21T20:05:10.951Z,20.98
2023-02-21T20:07:37.783Z,26.40
2023-02-21T20:10:06.284Z,25.02
2023-02-21T20:12:34.064Z,25.08
2023-02-21T20:15:03.353Z,27.17
2023-02-21T20:17:30.225Z,27.42
2023-02-21T20:19:56.920Z,28.77
2023-02-21T20:22:23.685Z,29.52
2023-02-21T20:24:51.036Z,28.60
2023-02-21T20:27:17.732Z,26.67
2023-02-21T20:29:46.203Z,35.28
2023-02-21T20:32:14.620Z,27.50
2023-02-21T20:34:41.367Z,28.80
2023-02-21T20:37:08.125Z,24.23
2023-02-21T20:39:35.662Z,26.52
2023-02-21T20:42:03.880Z,23.55
2023-02-21T20:44:34.331Z,29.00
2023-02-21T20:47:01.238Z,23.85
2023-02-21T20:49:29.959Z,28.65
2023-02-21T20:51:56.913Z,27.25
2023-02-21T20:54:24.545Z,30.77
2023-02-21T20:56:53.471Z,24.50
2023-02-21T20:59:22.240Z,28.25
2023-02-21T21:01:49.959Z,29.75
2023-02-21T21:04:18.098Z,31.02
2023-02-21T21:06:47.293Z,26.55
2023-02-21T21:09:15.537Z,30.70
2023-02-21T21:11:42.994Z,34.28
2023-02-21T21:14:09.962Z,36.78
2023-02-21T21:16:37.136Z,41.50
2023-02-21T21:19:04.306Z,37.40
2023-02-21T21:21:32.690Z,44.83
2023-02-21T21:24:01.227Z,46.40
2023-02-21T21:26:30.876Z,52.10
2023-02-21T21:31:24.980Z,55.85
2023-02-21T21:33:51.803Z,52.30
2023-02-21T21:36:18.814Z,67.82
2023-02-21T21:38:46.533Z,60.00
2023-02-21T21:41:15.166Z,72.60
2023-02-21T21:43:43.216Z,61.45
2023-02-21T21:46:11.099Z,60.08
2023-02-21T21:48:40.941Z,69.05
2023-02-21T21:53:34.675Z,73.50
2023-02-21T21:56:01.396Z,67.28
2023-02-21T21:58:29.718Z,71.20
2023-02-21T22:00:56.903Z,66.85
2023-02-21T22:03:23.642Z,71.80
2023-02-21T22:05:50.812Z,61.95
2023-02-21T22:08:17.636Z,71.55
2023-02-21T22:10:45.203Z,62.95
2023-02-21T22:13:12.390Z,69.22
2023-02-21T22:15:42.831Z,66.15
2023-02-21T22:18:12.534Z,60.75
2023-02-21T22:20:39.279Z,54.42
2023-02-21T22:23:06.979Z,56.67
2023-02-21T22:25:34.122Z,43.60
2023-02-21T22:28:05.121Z,45.67
2023-02-21T22:30:32.019Z,49.78
2023-02-21T22:33:00.253Z,51.03
2023-02-21T22:35:29.991Z,48.30
2023-02-21T22:37:59.237Z,55.42
2023-02-21T22:40:27.500Z,48.65
2023-02-21T22:42:55.759Z,47.40
2023-02-21T22:45:23.724Z,51.05
2023-02-21T22:47:52.000Z,46.85
2023-02-21T22:50:21.904Z,47.95
2023-02-21T22:52:52.202Z,48.63
2023-02-21T22:55:19.025Z,43.83
2023-02-21T22:57:45.802Z,43.95
2023-02-21T23:00:16.833Z,45.88
2023-02-21T23:02:43.601Z,43.80
2023-02-21T23:05:10.437Z,48.45
2023-02-21T23:07:38.791Z,40.17
2023-02-21T23:10:06.475Z,33.95
2023-02-21T23:12:33.254Z,42.70
2023-02-21T23:15:00.342Z,37.58
2023-02-21T23:17:27.183Z,42.55
2023-02-21T23:19:54.323Z,41.42
2023-02-21T23:22:21.051Z,40.58
2023-02-21T23:24:49.096Z,41.00
2023-02-21T23:27:15.836Z,36.17
2023-02-21T23:29:42.500Z,43.85
2023-02-21T23:32:09.735Z,45.50
2023-02-21T23:34:36.832Z,43.13
2023-02-21T23:37:03.513Z,46.65
2023-02-21T23:39:30.436Z,46.60
2023-02-21T23:41:58.722Z,38.83
2023-02-21T23:44:25.404Z,39.28
2023-02-21T23:46:52.120Z,43.30
2023-02-21T23:49:18.861Z,38.05
2023-02-21T23:51:45.587Z,43.40
2023-02-21T23:54:12.723Z,41.35
2023-02-21T23:56:39.627Z,42.58
2023-02-21T23:59:08.365Z,34.00
